Miami, Florida
Traffic Map
Current Weather Conditions
Miami, Florida
Overcast
Overcast
24°
Feels Like: 24°
Wind Chill: 24° Ceiling: 4600
Heat Index: 24° Visibility: 10mi
Dew Point: 21° Wind: 7mph
Humidity: 79% Direction: 40° (NE)
Pressure: 30.09in Gusts: 0mph
Raw Report DataKMIA 030353Z 04006KT 10SM FEW024 SCT035 OVC046 24/21 A3009 RMK AO2 SLP188 T02440206
Traffic Incident Summary
Active as of:
Severity:
Category:
InformationThere was an issue retrieving the traffic information for this location. Please try a different location or try again shortly.
Advertisements
Track Severe Weather on mobile